Time;durP1;ratioP1;P1;durP2;ratioP2;P2;SDS_P1;SDS_P2;PMS_P1;PMS_P2;Temp;Humidity;BMP_temperature;BMP_pressure;BME280_temperature;BME280_humidity;BME280_pressure;Samples;Min_cycle;Max_cycle;Signal;HPM_P1;HPM_P2
2023/10/23 00:00:41;;;;;;;11.15;10.65;;;;;;;;;;5058967;28;20548;-62
2023/10/23 00:03:06;;;;;;;10.73;10.23;;;;;;;;;;5062760;28;20025;-61
2023/10/23 00:05:31;;;;;;;11.00;10.50;;;;;;;;;;5059672;28;20358;-61
2023/10/23 00:07:57;;;;;;;10.93;10.43;;;;;;;;;;5055160;28;20392;-62
2023/10/23 00:10:22;;;;;;;11.07;10.57;;;;;;;;;;5058832;28;20063;-62
2023/10/23 00:12:48;;;;;;;11.55;11.05;;;;;;;;;;5055663;28;20079;-62
2023/10/23 00:15:13;;;;;;;11.60;11.10;;;;;;;;;;5059898;28;20038;-62
2023/10/23 00:17:38;;;;;;;10.75;10.25;;;;;;;;;;5058609;28;20028;-62
2023/10/23 00:20:04;;;;;;;11.38;10.88;;;;;;;;;;5061221;28;20024;-62
2023/10/23 00:22:29;;;;;;;10.88;10.38;;;;;;;;;;5059210;28;20467;-62
2023/10/23 00:24:55;;;;;;;11.68;11.18;;;;;;;;;;5057391;28;20039;-61
2023/10/23 00:27:20;;;;;;;11.23;10.73;;;;;;;;;;5057574;28;20036;-63
2023/10/23 00:29:45;;;;;;;11.68;11.18;;;;;;;;;;5062192;28;20056;-63
2023/10/23 00:32:11;;;;;;;10.73;10.23;;;;;;;;;;5073113;28;20040;-62
2023/10/23 00:34:36;;;;;;;10.88;10.38;;;;;;;;;;5070869;28;20017;-62
2023/10/23 00:37:01;;;;;;;10.90;10.40;;;;;;;;;;5068549;28;20021;-61
2023/10/23 00:39:27;;;;;;;11.30;10.80;;;;;;;;;;5062424;28;20025;-61
2023/10/23 00:41:52;;;;;;;10.68;10.18;;;;;;;;;;5070965;28;20023;-61
2023/10/23 00:44:17;;;;;;;10.65;10.15;;;;;;;;;;5068721;28;20024;-61
2023/10/23 00:46:43;;;;;;;10.65;10.15;;;;;;;;;;5060773;28;20556;-62
2023/10/23 00:49:09;;;;;;;10.70;10.20;;;;;;;;;;5071250;28;20062;-62
2023/10/23 00:51:34;;;;;;;10.75;10.25;;;;;;;;;;5072939;28;20024;-61
2023/10/23 00:54:01;;;;;;;10.73;10.23;;;;;;;;;;5072807;28;20020;-62
2023/10/23 00:56:27;;;;;;;10.90;10.40;;;;;;;;;;5068564;28;20086;-62
2023/10/23 00:58:52;;;;;;;10.52;10.02;;;;;;;;;;5073004;28;20020;-61
2023/10/23 01:01:18;;;;;;;10.85;10.35;;;;;;;;;;5071626;28;20019;-62
2023/10/23 01:03:43;;;;;;;11.50;11.00;;;;;;;;;;5058872;28;20024;-62
2023/10/23 01:06:09;;;;;;;10.90;10.40;;;;;;;;;;5058636;28;20036;-62
2023/10/23 01:08:34;;;;;;;10.88;10.38;;;;;;;;;;5057608;28;20028;-62
2023/10/23 01:11:00;;;;;;;10.77;10.27;;;;;;;;;;5057855;28;20482;-63
2023/10/23 01:13:26;;;;;;;10.80;10.30;;;;;;;;;;5059497;28;20044;-61
2023/10/23 01:15:51;;;;;;;10.95;10.45;;;;;;;;;;5054820;28;20571;-62
2023/10/23 01:18:17;;;;;;;10.73;10.23;;;;;;;;;;5056293;28;20040;-62
2023/10/23 01:20:42;;;;;;;10.73;10.23;;;;;;;;;;5061303;28;20032;-63
2023/10/23 01:23:08;;;;;;;10.98;10.48;;;;;;;;;;5056972;28;20043;-62
2023/10/23 01:25:33;;;;;;;10.73;10.23;;;;;;;;;;5062305;28;20024;-62
2023/10/23 01:27:59;;;;;;;11.30;10.80;;;;;;;;;;5057307;28;20404;-61
2023/10/23 01:30:24;;;;;;;11.15;10.65;;;;;;;;;;5056550;28;20060;-62
2023/10/23 01:32:49;;;;;;;11.05;10.55;;;;;;;;;;5057541;28;20017;-63
2023/10/23 01:35:14;;;;;;;10.68;10.18;;;;;;;;;;5055440;28;20112;-62
2023/10/23 01:37:41;;;;;;;10.80;10.30;;;;;;;;;;5058645;28;20032;-62
2023/10/23 01:40:07;;;;;;;10.65;10.15;;;;;;;;;;5058575;28;20044;-62
2023/10/23 01:42:32;;;;;;;11.07;10.57;;;;;;;;;;5055432;28;20425;-63
2023/10/23 01:44:58;;;;;;;11.15;10.65;;;;;;;;;;5057327;28;20146;-62
2023/10/23 01:47:24;;;;;;;10.80;10.30;;;;;;;;;;5056902;28;20104;-62
2023/10/23 01:49:49;;;;;;;11.43;10.93;;;;;;;;;;5056286;28;20025;-62
2023/10/23 01:52:15;;;;;;;11.10;10.60;;;;;;;;;;5061416;28;20055;-62
2023/10/23 01:54:40;;;;;;;11.10;10.60;;;;;;;;;;5056765;28;20028;-61
2023/10/23 01:57:05;;;;;;;11.10;10.60;;;;;;;;;;5059555;28;20028;-62
2023/10/23 01:59:31;;;;;;;10.73;10.23;;;;;;;;;;5057313;28;20032;-61
2023/10/23 02:01:56;;;;;;;11.15;10.65;;;;;;;;;;5059874;28;20037;-61
2023/10/23 02:04:21;;;;;;;11.52;11.02;;;;;;;;;;5054794;28;20072;-61
2023/10/23 02:06:47;;;;;;;11.10;10.60;;;;;;;;;;5054248;28;20123;-62
2023/10/23 02:09:12;;;;;;;11.23;10.73;;;;;;;;;;5062441;28;20065;-62
2023/10/23 02:11:37;;;;;;;11.10;10.60;;;;;;;;;;5055871;28;20398;-61
2023/10/23 02:14:03;;;;;;;11.23;10.73;;;;;;;;;;5059349;28;20064;-61
2023/10/23 02:16:28;;;;;;;11.27;10.77;;;;;;;;;;5053550;28;20059;-62
2023/10/23 02:18:53;;;;;;;10.90;10.40;;;;;;;;;;5058751;28;20067;-62
2023/10/23 02:21:19;;;;;;;11.43;10.93;;;;;;;;;;5055119;28;20474;-62
2023/10/23 02:23:44;;;;;;;10.93;10.43;;;;;;;;;;5060471;28;20700;-61
2023/10/23 02:26:10;;;;;;;10.85;10.35;;;;;;;;;;5056035;28;20025;-61
2023/10/23 02:28:35;;;;;;;11.25;10.75;;;;;;;;;;5055721;28;20083;-60
2023/10/23 02:31:03;;;;;;;10.65;10.15;;;;;;;;;;5060728;28;20017;-61
2023/10/23 02:33:29;;;;;;;11.00;10.50;;;;;;;;;;5069626;28;20024;-62
2023/10/23 02:35:54;;;;;;;10.73;10.23;;;;;;;;;;5068383;28;20440;-63
2023/10/23 02:38:20;;;;;;;10.75;10.25;;;;;;;;;;5066883;28;20473;-61
2023/10/23 02:40:51;;;;;;;10.50;10.00;;;;;;;;;;5065840;28;20024;-61
2023/10/23 02:43:17;;;;;;;10.98;10.48;;;;;;;;;;5071199;28;20020;-62
2023/10/23 02:45:42;;;;;;;10.75;10.25;;;;;;;;;;5071103;28;20500;-62
2023/10/23 02:48:07;;;;;;;10.82;10.32;;;;;;;;;;5071123;28;20024;-62
2023/10/23 02:50:33;;;;;;;10.65;10.15;;;;;;;;;;5068128;28;20095;-61
2023/10/23 02:52:58;;;;;;;10.60;10.10;;;;;;;;;;5086680;28;20510;-62
2023/10/23 02:55:25;;;;;;;10.48;9.98;;;;;;;;;;5070546;28;20020;-61
2023/10/23 02:57:50;;;;;;;11.32;10.82;;;;;;;;;;5073005;28;20393;-61
2023/10/23 03:00:15;;;;;;;11.00;10.50;;;;;;;;;;5070774;28;20071;-61
2023/10/23 03:02:43;;;;;;;10.70;10.20;;;;;;;;;;5068879;28;20024;-61
2023/10/23 03:05:08;;;;;;;10.70;10.20;;;;;;;;;;5061488;28;20039;-62
2023/10/23 03:07:34;;;;;;;11.10;10.60;;;;;;;;;;5054809;28;20029;-62
2023/10/23 03:09:59;;;;;;;11.30;10.80;;;;;;;;;;5062536;28;20431;-63
2023/10/23 03:12:24;;;;;;;10.55;10.05;;;;;;;;;;5058155;28;20029;-62
2023/10/23 03:14:50;;;;;;;10.73;10.23;;;;;;;;;;5058055;28;20049;-61
2023/10/23 03:17:15;;;;;;;11.55;11.05;;;;;;;;;;5057127;28;20044;-61
2023/10/23 03:19:40;;;;;;;10.80;10.30;;;;;;;;;;5057674;28;20040;-62
2023/10/23 03:22:06;;;;;;;10.93;10.43;;;;;;;;;;5058882;28;20021;-64
2023/10/23 03:24:31;;;;;;;11.20;10.70;;;;;;;;;;5059533;28;20029;-62
2023/10/23 03:26:56;;;;;;;11.10;10.60;;;;;;;;;;5064921;28;20040;-62
2023/10/23 03:29:21;;;;;;;11.05;10.55;;;;;;;;;;5056638;28;20027;-61
2023/10/23 03:31:47;;;;;;;10.93;10.43;;;;;;;;;;5063365;28;20139;-62
2023/10/23 03:34:12;;;;;;;11.80;11.30;;;;;;;;;;5060539;28;20381;-62
2023/10/23 03:36:37;;;;;;;11.45;10.95;;;;;;;;;;5060496;28;20049;-62
2023/10/23 03:39:03;;;;;;;10.98;10.48;;;;;;;;;;5057701;28;20107;-61
2023/10/23 03:41:29;;;;;;;11.20;10.70;;;;;;;;;;5058048;28;20040;-63
2023/10/23 03:43:54;;;;;;;11.43;10.93;;;;;;;;;;5059254;28;20029;-62
2023/10/23 03:46:19;;;;;;;10.82;10.32;;;;;;;;;;5060679;28;20059;-61
2023/10/23 03:48:45;;;;;;;11.30;10.80;;;;;;;;;;5060615;28;20036;-63
2023/10/23 03:51:10;;;;;;;11.60;11.10;;;;;;;;;;5061188;28;20032;-62
2023/10/23 03:53:35;;;;;;;10.63;10.13;;;;;;;;;;5058045;28;20063;-63
2023/10/23 03:56:03;;;;;;;10.80;10.30;;;;;;;;;;5059849;28;20025;-62
2023/10/23 03:58:29;;;;;;;11.10;10.60;;;;;;;;;;5058498;28;20524;-62
2023/10/23 04:00:54;;;;;;;11.13;10.63;;;;;;;;;;5058299;28;20089;-62
2023/10/23 04:03:20;;;;;;;11.98;11.43;;;;;;;;;;5058483;28;20028;-62
2023/10/23 04:05:45;;;;;;;11.30;10.80;;;;;;;;;;5060320;28;20056;-62
2023/10/23 04:08:11;;;;;;;10.90;10.40;;;;;;;;;;5060908;28;20021;-62
2023/10/23 04:10:36;;;;;;;11.02;10.52;;;;;;;;;;5057198;28;20025;-62
2023/10/23 04:13:01;;;;;;;12.65;12.05;;;;;;;;;;5058533;28;20161;-63
2023/10/23 04:15:27;;;;;;;11.20;10.70;;;;;;;;;;5055566;28;20028;-61
2023/10/23 04:17:52;;;;;;;11.55;11.05;;;;;;;;;;5058064;28;20070;-61
2023/10/23 04:20:18;;;;;;;12.88;12.27;;;;;;;;;;5055962;28;20028;-63
2023/10/23 04:22:43;;;;;;;11.27;10.77;;;;;;;;;;5057925;28;20095;-61
2023/10/23 04:25:09;;;;;;;11.45;10.95;;;;;;;;;;5066631;28;20040;-60
2023/10/23 04:27:35;;;;;;;11.30;10.80;;;;;;;;;;5058729;28;20032;-61
2023/10/23 04:30:00;;;;;;;11.93;11.38;;;;;;;;;;5054926;28;20013;-62
2023/10/23 04:32:26;;;;;;;11.07;10.57;;;;;;;;;;5064188;28;20074;-62
2023/10/23 04:34:51;;;;;;;11.43;10.93;;;;;;;;;;5063949;28;20031;-60
2023/10/23 04:37:17;;;;;;;10.68;10.18;;;;;;;;;;5058475;28;20020;-61
2023/10/23 04:39:42;;;;;;;11.18;10.68;;;;;;;;;;5056895;28;20079;-61
2023/10/23 04:42:07;;;;;;;11.65;11.15;;;;;;;;;;5056935;28;20028;-61
2023/10/23 04:44:33;;;;;;;10.98;10.48;;;;;;;;;;5057636;28;20560;-61
2023/10/23 04:46:59;;;;;;;10.73;10.23;;;;;;;;;;5053177;28;20020;-61
2023/10/23 04:49:24;;;;;;;11.75;11.25;;;;;;;;;;5055109;28;20038;-61
2023/10/23 04:51:50;;;;;;;10.70;10.20;;;;;;;;;;5057734;28;20025;-61
2023/10/23 04:54:15;;;;;;;11.00;10.50;;;;;;;;;;5068473;28;20012;-61
2023/10/23 04:56:41;;;;;;;10.70;10.20;;;;;;;;;;5055315;28;20024;-61
2023/10/23 04:59:07;;;;;;;11.73;11.15;;;;;;;;;;5061870;28;20492;-64
2023/10/23 05:01:33;;;;;;;11.23;10.73;;;;;;;;;;5055597;28;20041;-62
2023/10/23 05:03:58;;;;;;;11.45;10.95;;;;;;;;;;5056231;28;20081;-62
2023/10/23 05:06:26;;;;;;;11.68;11.18;;;;;;;;;;5053543;28;20099;-60
2023/10/23 05:08:51;;;;;;;11.60;11.10;;;;;;;;;;5057707;28;20013;-61
2023/10/23 05:11:16;;;;;;;11.50;11.00;;;;;;;;;;5053429;28;20079;-59
2023/10/23 05:13:42;;;;;;;11.10;10.60;;;;;;;;;;5056260;28;20824;-60
2023/10/23 05:16:07;;;;;;;11.25;10.75;;;;;;;;;;5055969;28;20367;-61
2023/10/23 05:18:33;;;;;;;11.30;10.80;;;;;;;;;;5054673;28;20059;-61
2023/10/23 05:20:58;;;;;;;11.15;10.65;;;;;;;;;;5056305;28;20021;-60
2023/10/23 05:23:24;;;;;;;11.20;10.70;;;;;;;;;;5055050;28;20040;-60
2023/10/23 05:25:49;;;;;;;11.13;10.63;;;;;;;;;;5053777;28;20044;-60
2023/10/23 05:28:15;;;;;;;11.50;11.00;;;;;;;;;;5055850;28;20035;-61
2023/10/23 05:30:40;;;;;;;11.45;10.95;;;;;;;;;;5055987;28;20462;-61
2023/10/23 05:33:05;;;;;;;11.38;10.88;;;;;;;;;;5055879;28;20102;-60
2023/10/23 05:35:30;;;;;;;11.35;10.85;;;;;;;;;;5052083;28;20033;-60
2023/10/23 05:37:57;;;;;;;11.50;11.00;;;;;;;;;;5051159;28;20131;-61
2023/10/23 05:40:22;;;;;;;11.40;10.90;;;;;;;;;;5051972;28;20650;-61
2023/10/23 05:42:47;;;;;;;11.73;11.23;;;;;;;;;;5053364;28;20044;-60
2023/10/23 05:45:13;;;;;;;11.75;11.25;;;;;;;;;;5056093;28;20099;-61
2023/10/23 05:47:38;;;;;;;11.35;10.85;;;;;;;;;;5059479;28;20123;-59
2023/10/23 05:50:06;;;;;;;11.20;10.70;;;;;;;;;;5057802;28;20013;-60
2023/10/23 05:52:32;;;;;;;11.68;11.18;;;;;;;;;;5057325;28;20036;-59
2023/10/23 05:54:57;;;;;;;11.80;11.30;;;;;;;;;;5055995;28;20013;-62
2023/10/23 05:57:22;;;;;;;11.52;11.02;;;;;;;;;;5057318;28;20482;-60
2023/10/23 05:59:48;;;;;;;11.68;11.18;;;;;;;;;;5060316;28;20033;-60
2023/10/23 06:02:13;;;;;;;11.68;11.18;;;;;;;;;;5055582;28;20052;-62
2023/10/23 06:04:42;;;;;;;11.57;11.07;;;;;;;;;;5053141;28;20029;-61
2023/10/23 06:07:07;;;;;;;12.40;11.80;;;;;;;;;;5049803;28;20029;-61
2023/10/23 06:09:32;;;;;;;11.57;11.07;;;;;;;;;;5054117;28;20078;-61
2023/10/23 06:11:58;;;;;;;11.60;11.10;;;;;;;;;;5054726;28;20028;-61
2023/10/23 06:14:23;;;;;;;11.57;11.07;;;;;;;;;;5055417;28;20064;-60
2023/10/23 06:16:48;;;;;;;11.27;10.77;;;;;;;;;;5056932;28;20110;-61
2023/10/23 06:19:14;;;;;;;11.60;11.10;;;;;;;;;;5054025;28;20021;-60
2023/10/23 06:21:39;;;;;;;11.75;11.25;;;;;;;;;;5052794;28;20032;-62
2023/10/23 06:24:05;;;;;;;11.63;11.13;;;;;;;;;;5052067;28;20397;-61
2023/10/23 06:26:30;;;;;;;11.18;10.68;;;;;;;;;;5063237;28;20024;-58
2023/10/23 06:28:56;;;;;;;11.10;10.60;;;;;;;;;;5064877;28;20032;-62
2023/10/23 06:31:21;;;;;;;11.57;11.07;;;;;;;;;;5064240;28;20049;-62
2023/10/23 06:33:47;;;;;;;11.75;11.25;;;;;;;;;;5058324;28;20477;-61
2023/10/23 06:36:12;;;;;;;11.60;11.10;;;;;;;;;;5061383;28;20032;-61
2023/10/23 06:38:37;;;;;;;11.10;10.60;;;;;;;;;;5061007;28;20029;-62
2023/10/23 06:41:04;;;;;;;11.32;10.82;;;;;;;;;;5063572;28;20020;-62
2023/10/23 06:43:30;;;;;;;11.43;10.93;;;;;;;;;;5055639;28;20025;-62
2023/10/23 06:45:55;;;;;;;11.43;10.93;;;;;;;;;;5061372;28;20041;-61
2023/10/23 06:48:20;;;;;;;11.48;10.98;;;;;;;;;;5061621;28;20024;-61
2023/10/23 06:50:48;;;;;;;11.88;11.38;;;;;;;;;;5048333;28;20964;-62
2023/10/23 06:53:17;;;;;;;11.85;11.35;;;;;;;;;;5053425;28;20033;-63
2023/10/23 06:55:52;;;;;;;12.00;11.50;;;;;;;;;;5047861;28;20048;-61
2023/10/23 06:58:19;;;;;;;11.50;11.00;;;;;;;;;;5052164;28;20025;-63
2023/10/23 07:00:44;;;;;;;11.60;11.10;;;;;;;;;;5059194;28;20430;-64
2023/10/23 07:03:09;;;;;;;11.25;10.75;;;;;;;;;;5050984;28;20103;-64
2023/10/23 07:05:35;;;;;;;11.68;11.18;;;;;;;;;;5050983;28;20028;-63
2023/10/23 07:08:00;;;;;;;11.82;11.32;;;;;;;;;;5051355;28;20044;-63
2023/10/23 07:10:25;;;;;;;12.00;11.50;;;;;;;;;;5056433;28;20029;-62
2023/10/23 07:12:52;;;;;;;12.30;11.73;;;;;;;;;;5054608;28;20497;-63
2023/10/23 07:15:17;;;;;;;11.70;11.20;;;;;;;;;;5060976;28;20031;-63
2023/10/23 07:17:42;;;;;;;11.55;11.05;;;;;;;;;;5055764;28;20016;-63
2023/10/23 07:20:08;;;;;;;11.38;10.88;;;;;;;;;;5056127;28;20025;-63
2023/10/23 07:22:33;;;;;;;11.93;11.43;;;;;;;;;;5049939;28;20029;-63
2023/10/23 07:24:59;;;;;;;11.27;10.77;;;;;;;;;;5054732;28;20546;-62
2023/10/23 07:27:25;;;;;;;11.77;11.27;;;;;;;;;;5052999;28;20033;-63
2023/10/23 07:29:51;;;;;;;11.98;11.48;;;;;;;;;;5050526;28;20021;-61
2023/10/23 07:32:16;;;;;;;11.95;11.45;;;;;;;;;;5052023;28;20170;-63
2023/10/23 07:34:41;;;;;;;11.88;11.38;;;;;;;;;;5051573;28;20017;-62
2023/10/23 07:37:07;;;;;;;11.60;11.10;;;;;;;;;;5055654;28;20486;-62
2023/10/23 07:39:32;;;;;;;11.57;11.07;;;;;;;;;;5053312;28;20029;-64
2023/10/23 07:41:57;;;;;;;11.82;11.32;;;;;;;;;;5054346;28;20033;-63
2023/10/23 07:44:23;;;;;;;12.52;11.93;;;;;;;;;;5054398;28;20029;-62
2023/10/23 07:46:49;;;;;;;11.80;11.30;;;;;;;;;;5054744;28;20091;-64
2023/10/23 07:49:14;;;;;;;12.02;11.52;;;;;;;;;;5058832;28;20028;-64
2023/10/23 07:51:39;;;;;;;11.55;11.05;;;;;;;;;;5060729;28;20032;-62
2023/10/23 07:54:05;;;;;;;11.80;11.30;;;;;;;;;;5058707;28;20155;-62
2023/10/23 07:56:30;;;;;;;12.57;11.98;;;;;;;;;;5053451;28;20563;-64
2023/10/23 07:58:55;;;;;;;12.10;11.60;;;;;;;;;;5056103;28;20069;-63
2023/10/23 08:01:21;;;;;;;11.82;11.32;;;;;;;;;;5056817;28;20056;-63
2023/10/23 08:03:47;;;;;;;11.95;11.45;;;;;;;;;;5058320;28;20020;-65
2023/10/23 08:06:12;;;;;;;12.95;12.35;;;;;;;;;;5067289;28;20035;-62
2023/10/23 08:08:38;;;;;;;11.90;11.40;;;;;;;;;;5062618;28;20082;-64
2023/10/23 08:11:04;;;;;;;12.25;11.75;;;;;;;;;;5066891;28;20035;-62
2023/10/23 08:13:30;;;;;;;11.70;11.20;;;;;;;;;;5061681;28;20049;-64
2023/10/23 08:15:55;;;;;;;11.98;11.48;;;;;;;;;;5065449;28;20040;-63
2023/10/23 08:18:21;;;;;;;12.27;11.77;;;;;;;;;;5055739;28;20043;-64
2023/10/23 08:20:46;;;;;;;11.77;11.27;;;;;;;;;;5068187;28;20063;-64
2023/10/23 08:23:11;;;;;;;12.20;11.70;;;;;;;;;;5060505;28;20108;-63
2023/10/23 08:25:37;;;;;;;11.73;11.23;;;;;;;;;;5066996;28;20035;-64
2023/10/23 08:28:02;;;;;;;12.55;11.95;;;;;;;;;;5055314;28;20036;-63
2023/10/23 08:30:28;;;;;;;12.10;11.60;;;;;;;;;;5064180;28;20107;-65
2023/10/23 08:32:53;;;;;;;12.00;11.50;;;;;;;;;;5062677;28;20037;-62
2023/10/23 08:35:19;;;;;;;12.20;11.70;;;;;;;;;;5069442;28;20023;-62
2023/10/23 08:37:44;;;;;;;12.07;11.57;;;;;;;;;;5070916;28;20032;-64
2023/10/23 08:40:10;;;;;;;11.82;11.32;;;;;;;;;;5065629;28;20103;-63
2023/10/23 08:42:36;;;;;;;11.73;11.23;;;;;;;;;;5059888;28;20040;-64
2023/10/23 08:45:02;;;;;;;11.98;11.48;;;;;;;;;;5061979;28;20154;-62
2023/10/23 08:47:27;;;;;;;12.23;11.73;;;;;;;;;;5063285;28;20044;-65
2023/10/23 08:49:54;;;;;;;12.20;11.70;;;;;;;;;;5056661;28;20029;-63
2023/10/23 08:52:21;;;;;;;11.70;11.20;;;;;;;;;;5062628;28;20021;-62
2023/10/23 08:54:47;;;;;;;11.80;11.30;;;;;;;;;;5053833;28;20098;-63
2023/10/23 08:57:12;;;;;;;12.07;11.57;;;;;;;;;;5055761;28;20024;-63
2023/10/23 08:59:41;;;;;;;12.18;11.68;;;;;;;;;;5054655;28;20669;-62
2023/10/23 09:02:07;;;;;;;11.90;11.40;;;;;;;;;;5058214;28;20046;-62
2023/10/23 09:04:32;;;;;;;11.82;11.32;;;;;;;;;;5056204;28;20029;-63
2023/10/23 09:07:00;;;;;;;11.95;11.45;;;;;;;;;;5054610;28;20024;-63
2023/10/23 09:09:25;;;;;;;11.85;11.35;;;;;;;;;;5064503;28;20020;-61
2023/10/23 09:11:50;;;;;;;11.77;11.27;;;;;;;;;;5057446;28;20031;-62
2023/10/23 09:14:31;;;;;;;11.70;11.20;;;;;;;;;;5051220;28;20037;-63
2023/10/23 09:16:57;;;;;;;11.70;11.20;;;;;;;;;;5062243;28;20221;-63
2023/10/23 09:19:23;;;;;;;11.68;11.18;;;;;;;;;;5063782;28;20039;-62
2023/10/23 09:21:48;;;;;;;11.80;11.30;;;;;;;;;;5057980;28;20033;-64
2023/10/23 09:24:13;;;;;;;11.97;11.47;;;;;;;;;;5055060;28;20030;-62
2023/10/23 09:26:39;;;;;;;12.60;12.00;;;;;;;;;;5058677;28;20284;-63
2023/10/23 09:29:06;;;;;;;12.15;11.65;;;;;;;;;;5054409;28;20306;-63
2023/10/23 09:31:32;;;;;;;12.27;11.77;;;;;;;;;;5056480;28;20022;-63
2023/10/23 09:33:58;;;;;;;12.48;11.90;;;;;;;;;;5055894;28;20029;-62
2023/10/23 09:36:25;;;;;;;12.45;11.85;;;;;;;;;;5056594;28;20497;-62
2023/10/23 09:39:00;;;;;;;12.75;12.15;;;;;;;;;;5068306;28;20039;-63
2023/10/23 09:41:26;;;;;;;11.93;11.43;;;;;;;;;;5059600;28;20032;-63
2023/10/23 09:43:52;;;;;;;12.45;11.85;;;;;;;;;;5061162;28;20493;-62
2023/10/23 09:46:18;;;;;;;11.90;11.40;;;;;;;;;;5058686;28;20016;-62
2023/10/23 09:48:44;;;;;;;12.20;11.70;;;;;;;;;;5060888;28;20028;-64
2023/10/23 09:51:15;;;;;;;12.13;11.63;;;;;;;;;;5059621;28;20093;-62
2023/10/23 09:53:47;;;;;;;12.05;11.55;;;;;;;;;;5059573;28;20029;-62
2023/10/23 09:56:15;;;;;;;12.65;12.05;;;;;;;;;;5059621;28;20027;-64
2023/10/23 09:58:44;;;;;;;11.80;11.30;;;;;;;;;;5058917;28;20024;-62
2023/10/23 10:01:11;;;;;;;12.25;11.73;;;;;;;;;;5064017;28;20024;-61
2023/10/23 10:03:39;;;;;;;11.75;11.25;;;;;;;;;;5065037;28;20052;-63
2023/10/23 10:06:09;;;;;;;11.63;11.13;;;;;;;;;;5061963;28;20082;-63
2023/10/23 10:08:36;;;;;;;11.75;11.25;;;;;;;;;;5065520;28;20028;-64
2023/10/23 10:11:02;;;;;;;11.55;11.05;;;;;;;;;;5060677;28;20024;-64
2023/10/23 10:13:28;;;;;;;12.43;11.82;;;;;;;;;;5063996;28;20544;-64
2023/10/23 10:15:54;;;;;;;12.65;12.05;;;;;;;;;;5055205;28;20051;-62
2023/10/23 10:18:21;;;;;;;11.65;11.15;;;;;;;;;;5054018;28;20691;-62
2023/10/23 10:20:47;;;;;;;12.68;12.07;;;;;;;;;;5058454;28;20029;-63
2023/10/23 10:23:14;;;;;;;12.55;11.95;;;;;;;;;;5067367;28;20029;-63
2023/10/23 10:25:41;;;;;;;12.88;12.27;;;;;;;;;;5054638;28;20035;-63
2023/10/23 10:28:07;;;;;;;12.43;11.82;;;;;;;;;;5057705;28;20013;-63
2023/10/23 10:30:49;;;;;;;12.60;12.00;;;;;;;;;;5054858;28;20128;-63
2023/10/23 10:33:22;;;;;;;11.80;11.30;;;;;;;;;;5053950;28;20052;-63
2023/10/23 10:35:50;;;;;;;11.38;10.88;;;;;;;;;;5052438;28;20924;-65
2023/10/23 10:38:22;;;;;;;12.10;11.60;;;;;;;;;;5052645;28;20052;-61
2023/10/23 10:41:02;;;;;;;12.18;11.65;;;;;;;;;;5049193;28;20121;-62
2023/10/23 10:43:37;;;;;;;12.18;11.68;;;;;;;;;;5055767;28;20113;-62
2023/10/23 10:46:12;;;;;;;12.48;11.88;;;;;;;;;;5063998;28;20055;-63
2023/10/23 10:48:45;;;;;;;11.77;11.27;;;;;;;;;;5056446;28;20070;-62
2023/10/23 10:51:13;;;;;;;11.50;11.00;;;;;;;;;;5061506;28;20386;-62
2023/10/23 10:53:40;;;;;;;12.38;11.80;;;;;;;;;;5055801;28;20365;-63
2023/10/23 10:56:08;;;;;;;12.45;11.85;;;;;;;;;;5057206;28;20036;-62
2023/10/23 10:58:34;;;;;;;12.10;11.60;;;;;;;;;;5054753;28;20753;-61
2023/10/23 11:00:59;;;;;;;12.10;11.60;;;;;;;;;;5063508;28;20389;-61
2023/10/23 11:03:26;;;;;;;11.50;11.00;;;;;;;;;;5060955;28;20024;-62
2023/10/23 11:05:52;;;;;;;11.73;11.23;;;;;;;;;;5057418;28;20126;-61
2023/10/23 11:08:17;;;;;;;12.32;11.73;;;;;;;;;;5052989;28;20025;-61
2023/10/23 11:10:43;;;;;;;11.40;10.90;;;;;;;;;;5062785;28;20021;-61
2023/10/23 11:13:12;;;;;;;12.10;11.60;;;;;;;;;;5056649;28;20140;-63
2023/10/23 11:15:37;;;;;;;12.10;11.60;;;;;;;;;;5054431;28;20397;-64
2023/10/23 11:18:04;;;;;;;12.10;11.60;;;;;;;;;;5062283;28;20029;-64
2023/10/23 11:20:31;;;;;;;11.95;11.45;;;;;;;;;;5053993;28;20112;-63
2023/10/23 11:22:56;;;;;;;12.65;12.05;;;;;;;;;;5059288;28;20439;-62
2023/10/23 11:25:21;;;;;;;11.77;11.27;;;;;;;;;;5066337;28;20035;-64
2023/10/23 11:27:49;;;;;;;11.90;11.40;;;;;;;;;;5062426;28;20048;-62
2023/10/23 11:30:15;;;;;;;12.13;11.63;;;;;;;;;;5062494;28;20099;-63
2023/10/23 11:32:41;;;;;;;12.05;11.55;;;;;;;;;;5059799;28;20245;-62
2023/10/23 11:35:06;;;;;;;11.52;11.02;;;;;;;;;;5058979;28;20020;-63
2023/10/23 11:37:41;;;;;;;11.70;11.20;;;;;;;;;;5065956;28;20051;-63
2023/10/23 11:40:07;;;;;;;11.65;11.15;;;;;;;;;;5059479;28;20116;-63
2023/10/23 11:42:49;;;;;;;12.00;11.50;;;;;;;;;;5063091;28;20404;-63
2023/10/23 11:45:17;;;;;;;12.73;12.13;;;;;;;;;;5065737;28;20025;-62
2023/10/23 11:47:42;;;;;;;12.40;11.80;;;;;;;;;;5060176;28;20232;-63
2023/10/23 11:50:10;;;;;;;11.80;11.30;;;;;;;;;;5052611;28;20503;-60
2023/10/23 11:52:36;;;;;;;12.10;11.60;;;;;;;;;;5062267;28;21332;-62
2023/10/23 11:55:04;;;;;;;11.57;11.07;;;;;;;;;;5062019;28;20029;-63
2023/10/23 11:57:31;;;;;;;13.05;12.45;;;;;;;;;;5054558;28;25661;-61
2023/10/23 11:59:58;;;;;;;11.48;10.98;;;;;;;;;;5067641;28;20035;-64
2023/10/23 12:02:23;;;;;;;11.68;11.18;;;;;;;;;;5059892;28;20028;-64
2023/10/23 12:04:49;;;;;;;12.02;11.52;;;;;;;;;;5057348;28;20513;-63
2023/10/23 12:07:14;;;;;;;11.80;11.30;;;;;;;;;;5056980;28;20381;-62
2023/10/23 12:09:39;;;;;;;12.85;12.25;;;;;;;;;;5062449;28;20021;-62
2023/10/23 12:12:05;;;;;;;11.93;11.43;;;;;;;;;;5057899;28;20025;-61
2023/10/23 12:14:30;;;;;;;12.48;11.88;;;;;;;;;;5055164;28;20602;-66
2023/10/23 12:16:55;;;;;;;12.30;11.73;;;;;;;;;;5055467;28;20028;-63
2023/10/23 12:19:21;;;;;;;12.15;11.65;;;;;;;;;;5056097;28;20086;-62
2023/10/23 12:21:46;;;;;;;12.90;12.30;;;;;;;;;;5055234;28;20029;-63
2023/10/23 12:24:11;;;;;;;12.02;11.52;;;;;;;;;;5053012;28;20474;-64
2023/10/23 12:26:36;;;;;;;12.95;12.35;;;;;;;;;;5048316;28;20072;-64
2023/10/23 12:29:05;;;;;;;12.20;11.70;;;;;;;;;;5054564;28;20086;-62
2023/10/23 12:31:30;;;;;;;11.77;11.27;;;;;;;;;;5061071;28;20032;-62
2023/10/23 12:33:56;;;;;;;11.80;11.30;;;;;;;;;;5056641;28;20600;-62
2023/10/23 12:36:22;;;;;;;11.63;11.13;;;;;;;;;;5053688;28;20437;-62
2023/10/23 12:38:47;;;;;;;12.25;11.70;;;;;;;;;;5062713;28;20046;-62
2023/10/23 12:41:12;;;;;;;12.43;11.82;;;;;;;;;;5052532;28;20078;-62
2023/10/23 12:43:38;;;;;;;11.30;10.80;;;;;;;;;;5053426;28;20781;-63
2023/10/23 12:46:03;;;;;;;12.00;11.50;;;;;;;;;;5060758;28;20616;-63
2023/10/23 12:48:28;;;;;;;12.10;11.60;;;;;;;;;;5055254;28;20039;-62
2023/10/23 12:50:54;;;;;;;11.80;11.30;;;;;;;;;;5051449;28;20025;-62
2023/10/23 12:53:19;;;;;;;11.45;10.95;;;;;;;;;;5054685;28;20031;-64
2023/10/23 12:55:45;;;;;;;12.73;12.13;;;;;;;;;;5059920;28;20021;-64
2023/10/23 12:58:11;;;;;;;12.25;11.73;;;;;;;;;;5063977;28;20481;-65
2023/10/23 13:00:36;;;;;;;11.52;11.02;;;;;;;;;;5062610;28;20025;-65
2023/10/23 13:03:02;;;;;;;11.35;10.85;;;;;;;;;;5056617;28;20087;-62
2023/10/23 13:05:28;;;;;;;11.73;11.23;;;;;;;;;;5055368;28;20039;-63
2023/10/23 13:07:54;;;;;;;12.07;11.57;;;;;;;;;;5053668;28;20040;-61
2023/10/23 13:10:19;;;;;;;12.02;11.52;;;;;;;;;;5053063;28;20017;-62
2023/10/23 13:12:44;;;;;;;12.35;11.80;;;;;;;;;;5053219;28;20028;-62
2023/10/23 13:15:10;;;;;;;12.05;11.55;;;;;;;;;;5060851;28;20048;-64
2023/10/23 13:17:35;;;;;;;11.80;11.30;;;;;;;;;;5053300;28;20041;-63
2023/10/23 13:20:00;;;;;;;12.05;11.55;;;;;;;;;;5063680;28;20032;-62
2023/10/23 13:22:26;;;;;;;11.80;11.30;;;;;;;;;;5051760;28;20052;-62
2023/10/23 13:24:51;;;;;;;11.88;11.38;;;;;;;;;;5065928;28;20035;-64
2023/10/23 13:27:16;;;;;;;11.80;11.30;;;;;;;;;;5060554;28;20097;-64
2023/10/23 13:29:42;;;;;;;11.93;11.43;;;;;;;;;;5060653;28;20299;-64
2023/10/23 13:32:07;;;;;;;11.60;11.10;;;;;;;;;;5063022;28;20020;-62
2023/10/23 13:34:33;;;;;;;11.30;10.80;;;;;;;;;;5056556;28;20059;-63
2023/10/23 13:36:58;;;;;;;12.52;11.93;;;;;;;;;;5060092;28;20149;-63
2023/10/23 13:39:24;;;;;;;12.40;11.80;;;;;;;;;;5051478;28;20033;-62
2023/10/23 13:41:49;;;;;;;12.10;11.60;;;;;;;;;;5056222;28;20047;-65
2023/10/23 13:44:15;;;;;;;11.90;11.40;;;;;;;;;;5051985;28;20025;-64
2023/10/23 13:46:42;;;;;;;13.20;12.60;;;;;;;;;;5056322;28;20472;-62
2023/10/23 13:49:07;;;;;;;12.85;12.25;;;;;;;;;;5058794;28;20501;-63
2023/10/23 13:51:33;;;;;;;13.38;12.77;;;;;;;;;;5055778;28;20137;-63
2023/10/23 13:53:58;;;;;;;12.20;11.68;;;;;;;;;;5057319;28;20025;-63
2023/10/23 13:56:23;;;;;;;12.45;11.85;;;;;;;;;;5050517;28;20040;-64
2023/10/23 13:58:49;;;;;;;12.15;11.65;;;;;;;;;;5056002;28;20086;-61
2023/10/23 14:01:14;;;;;;;12.15;11.63;;;;;;;;;;5055056;28;20028;-62
2023/10/23 14:03:40;;;;;;;12.50;11.90;;;;;;;;;;5057053;28;20028;-64
2023/10/23 14:06:06;;;;;;;11.60;11.10;;;;;;;;;;5058088;28;20032;-66
2023/10/23 14:08:31;;;;;;;11.90;11.40;;;;;;;;;;5057931;28;20029;-65